Kennebec, South Dakota
Current Conditions -  °F | °C
As of 11:35 AM on Tuesday 21 Oct 2014 (Local Time) from K9V9 Reporting Station
Clear Clear  
Wind Chill: 71°   Ceiling: Unl
Heat Index: 71°   Visibility: 10mi
Dew Point: 46°   Wind: 15mph
Humidity: 42%   Direction: 190°S
Pressure: 29.93"   Gusts: 21mph
Location:  43.9°N, 99.86°W
Report Text: K9V9 211635Z AUTO 19013G18KT 10SM CLR 21/08 A2993 RMK AO2 T02140079
Loading
Personal Weather Stations






























Interactive Weather Map New forecast layout! Learn more

10-Day Weather Forecast

Advertisements
Track Severe Weather on mobile